createdAt,value
2022-09-11T00:00:12.282Z,14.90
2022-09-11T00:04:04.877Z,14.80
2022-09-11T00:08:09.782Z,14.80
2022-09-11T00:12:07.444Z,14.80
2022-09-11T00:15:51.526Z,14.80
2022-09-11T00:19:35.661Z,14.70
2022-09-11T00:23:24.943Z,14.70
2022-09-11T00:27:07.018Z,14.60
2022-09-11T00:31:01.655Z,14.60
2022-09-11T00:34:44.740Z,14.50
2022-09-11T00:38:32.538Z,14.50
2022-09-11T00:42:14.329Z,14.50
2022-09-11T00:46:03.649Z,14.40
2022-09-11T00:49:51.239Z,14.40
2022-09-11T00:53:36.367Z,14.40
2022-09-11T00:57:21.880Z,14.30
2022-09-11T01:01:04.195Z,14.30
2022-09-11T01:04:46.037Z,14.30
2022-09-11T01:08:27.938Z,14.20
2022-09-11T01:12:19.695Z,14.20
2022-09-11T01:16:32.859Z,14.10
2022-09-11T01:20:27.090Z,14.10
2022-09-11T01:24:39.933Z,14.00
2022-09-11T01:28:49.147Z,13.90
2022-09-11T01:32:35.628Z,13.90
2022-09-11T01:36:28.935Z,13.80
2022-09-11T01:40:29.997Z,13.80
2022-09-11T01:44:21.549Z,13.70
2022-09-11T01:48:04.912Z,13.70
2022-09-11T01:51:50.330Z,13.70
2022-09-11T01:55:39.414Z,13.60
2022-09-11T01:59:28.032Z,13.50
2022-09-11T02:03:21.159Z,13.50
2022-09-11T02:07:19.545Z,13.50
2022-09-11T02:11:07.379Z,13.40
2022-09-11T02:14:53.422Z,13.40
2022-09-11T02:18:47.552Z,13.40
2022-09-11T02:22:31.207Z,13.40
2022-09-11T02:26:14.163Z,13.40
2022-09-11T02:29:56.384Z,13.30
2022-09-11T02:33:38.378Z,13.30
2022-09-11T02:37:25.676Z,13.30
2022-09-11T02:41:15.259Z,13.30
2022-09-11T02:45:29.117Z,13.20
2022-09-11T02:58:05.780Z,13.20
2022-09-11T03:02:26.327Z,13.10
2022-09-11T03:06:21.863Z,13.10
2022-09-11T03:10:26.648Z,13.10
2022-09-11T03:14:08.615Z,13.00
2022-09-11T03:18:51.435Z,13.00
2022-09-11T03:27:44.023Z,12.90
2022-09-11T03:44:13.931Z,12.80
2022-09-11T03:47:55.878Z,12.80
2022-09-11T03:51:37.997Z,12.80
2022-09-11T03:55:20.042Z,12.80
2022-09-11T03:59:01.891Z,12.70
2022-09-11T04:03:15.803Z,12.70
2022-09-11T04:10:42.541Z,12.60
2022-09-11T04:14:24.544Z,12.60
2022-09-11T04:18:07.660Z,12.60
2022-09-11T04:21:49.452Z,12.60
2022-09-11T04:25:31.608Z,12.60
2022-09-11T04:29:13.444Z,12.50
2022-09-11T04:32:55.590Z,12.50
2022-09-11T04:36:37.574Z,12.40
2022-09-11T04:40:19.367Z,12.40
2022-09-11T04:44:05.222Z,12.40
2022-09-11T04:47:47.166Z,12.40
2022-09-11T04:51:34.880Z,12.30
2022-09-11T04:55:16.780Z,12.30
2022-09-11T04:59:09.597Z,12.30
2022-09-11T05:02:51.601Z,12.30
2022-09-11T05:06:33.415Z,12.30
2022-09-11T05:10:16.364Z,12.30
2022-09-11T05:14:01.503Z,12.30
2022-09-11T05:17:43.296Z,12.30
2022-09-11T05:21:26.359Z,12.40
2022-09-11T05:25:09.639Z,12.40
2022-09-11T05:28:55.818Z,12.40
2022-09-11T05:32:37.593Z,12.50
2022-09-11T05:36:19.403Z,12.50
2022-09-11T05:40:01.357Z,12.60
2022-09-11T05:43:43.764Z,12.60
2022-09-11T05:47:25.735Z,12.60
2022-09-11T05:51:14.727Z,12.60
2022-09-11T05:54:56.873Z,12.60
2022-09-11T05:58:38.699Z,12.60
2022-09-11T06:02:20.540Z,12.60
2022-09-11T06:06:04.176Z,12.60
2022-09-11T06:09:45.938Z,12.70
2022-09-11T06:13:34.043Z,12.70
2022-09-11T06:17:15.810Z,12.70
2022-09-11T06:21:01.836Z,12.80
2022-09-11T06:24:45.120Z,12.80
2022-09-11T06:28:26.897Z,12.80
2022-09-11T06:32:08.827Z,12.80
2022-09-11T06:36:01.551Z,12.80
2022-09-11T06:39:43.416Z,12.90
2022-09-11T06:43:25.447Z,12.90
2022-09-11T06:47:07.403Z,13.00
2022-09-11T06:50:49.231Z,13.00
2022-09-11T06:54:31.000Z,13.10
2022-09-11T06:58:12.786Z,13.20
2022-09-11T07:01:55.511Z,13.30
2022-09-11T07:05:37.414Z,13.40
2022-09-11T07:09:19.218Z,13.40
2022-09-11T07:13:01.167Z,13.50
2022-09-11T07:16:42.985Z,13.60
2022-09-11T07:20:25.250Z,13.70
2022-09-11T07:24:07.408Z,13.80
2022-09-11T07:27:51.904Z,13.90
2022-09-11T07:31:34.491Z,14.10
2022-09-11T07:35:21.398Z,14.30
2022-09-11T07:39:04.026Z,14.50
2022-09-11T07:42:45.787Z,14.60
2022-09-11T07:46:27.716Z,14.80
2022-09-11T07:50:10.165Z,14.90
2022-09-11T07:53:52.785Z,15.00
2022-09-11T07:57:34.644Z,15.10
2022-09-11T08:01:22.039Z,15.10
2022-09-11T08:05:04.045Z,15.20
2022-09-11T08:08:45.936Z,15.30
2022-09-11T08:12:27.756Z,15.40
2022-09-11T08:16:09.750Z,15.50
2022-09-11T08:19:52.053Z,15.70
2022-09-11T08:23:34.107Z,15.80
2022-09-11T08:27:15.882Z,16.00
2022-09-11T08:30:59.151Z,16.10
2022-09-11T08:34:40.971Z,16.30
2022-09-11T08:38:22.979Z,16.50
2022-09-11T08:42:16.495Z,16.60
2022-09-11T08:46:05.519Z,16.80
2022-09-11T08:50:01.542Z,16.90
2022-09-11T08:53:45.560Z,17.00
2022-09-11T08:57:37.867Z,17.10
2022-09-11T09:01:26.224Z,17.30
2022-09-11T09:05:28.414Z,17.40
2022-09-11T09:09:13.650Z,17.60
2022-09-11T09:13:13.015Z,17.70
2022-09-11T09:17:08.408Z,18.00
2022-09-11T09:21:06.576Z,18.40
2022-09-11T09:24:55.133Z,18.60
2022-09-11T09:28:46.869Z,19.00
2022-09-11T09:32:42.206Z,19.20
2022-09-11T09:36:50.364Z,19.50
2022-09-11T09:40:35.102Z,19.70
2022-09-11T09:44:28.536Z,19.90
2022-09-11T09:48:11.938Z,20.10
2022-09-11T09:51:59.804Z,20.30
2022-09-11T09:55:45.119Z,20.60
2022-09-11T09:59:50.801Z,21.10
2022-09-11T10:03:33.696Z,21.90
2022-09-11T10:07:22.307Z,22.60
2022-09-11T10:11:26.791Z,22.90
2022-09-11T10:15:22.532Z,23.10
2022-09-11T10:19:04.331Z,23.40
2022-09-11T10:22:46.423Z,23.50
2022-09-11T10:26:28.424Z,23.50
2022-09-11T10:30:31.513Z,23.40
2022-09-11T10:34:17.219Z,23.40
2022-09-11T10:38:19.857Z,23.50
2022-09-11T10:42:08.231Z,23.70
2022-09-11T10:46:04.736Z,23.90
2022-09-11T10:49:47.254Z,24.30
2022-09-11T10:53:33.952Z,25.00
2022-09-11T10:57:34.167Z,26.10
2022-09-11T11:01:16.089Z,27.10
2022-09-11T11:05:06.229Z,28.00
2022-09-11T11:08:57.955Z,28.30
2022-09-11T11:13:14.566Z,28.10
2022-09-11T11:17:22.716Z,28.10
2022-09-11T11:21:13.254Z,28.90
2022-09-11T11:25:06.891Z,29.70
2022-09-11T11:28:51.721Z,29.90
2022-09-11T11:32:45.242Z,30.60
2022-09-11T11:36:37.966Z,31.10
2022-09-11T11:40:37.771Z,31.40
2022-09-11T11:44:33.492Z,31.80
2022-09-11T11:48:25.538Z,31.60
2022-09-11T11:52:16.750Z,31.20
2022-09-11T11:56:36.809Z,31.30
2022-09-11T12:00:19.142Z,31.40
2022-09-11T12:04:16.422Z,31.60
2022-09-11T12:07:58.497Z,31.80
2022-09-11T12:11:40.422Z,32.20
2022-09-11T12:15:30.228Z,32.40
2022-09-11T12:19:27.977Z,32.20
2022-09-11T12:24:05.027Z,31.90
2022-09-11T12:27:54.050Z,31.50
2022-09-11T12:31:51.314Z,31.20
2022-09-11T12:35:48.584Z,30.90
2022-09-11T12:39:39.246Z,30.50
2022-09-11T12:43:36.192Z,30.50
2022-09-11T12:47:39.851Z,31.50
2022-09-11T12:51:42.298Z,32.40
2022-09-11T12:55:32.451Z,33.00
2022-09-11T12:59:33.413Z,33.20
2022-09-11T13:03:26.240Z,33.20
2022-09-11T13:07:08.455Z,32.70
2022-09-11T13:10:50.700Z,32.70
2022-09-11T13:14:32.496Z,32.20
2022-09-11T13:18:32.040Z,31.60
2022-09-11T13:22:31.318Z,31.30
2022-09-11T13:26:27.197Z,31.80
2022-09-11T13:30:11.529Z,32.70
2022-09-11T13:33:53.611Z,32.80
2022-09-11T13:37:40.515Z,32.60
2022-09-11T13:41:26.103Z,32.40
2022-09-11T13:45:15.604Z,32.40
2022-09-11T13:49:10.397Z,33.20
2022-09-11T13:52:53.995Z,33.80
2022-09-11T13:57:01.735Z,34.30
2022-09-11T14:00:48.679Z,34.60
2022-09-11T14:04:32.975Z,34.10
2022-09-11T14:08:39.352Z,33.30
2022-09-11T14:12:21.140Z,32.40
2022-09-11T14:16:08.286Z,31.60
2022-09-11T14:19:52.424Z,31.00
2022-09-11T14:23:43.071Z,30.60
2022-09-11T14:27:31.411Z,30.20
2022-09-11T14:31:27.035Z,30.10
2022-09-11T14:35:10.428Z,29.90
2022-09-11T14:38:53.414Z,29.60
2022-09-11T14:42:36.857Z,29.20
2022-09-11T14:46:18.673Z,28.80
2022-09-11T14:50:00.845Z,28.80
2022-09-11T14:53:43.392Z,29.10
2022-09-11T14:57:30.665Z,29.60
2022-09-11T15:01:13.950Z,29.90
2022-09-11T15:04:57.751Z,30.20
2022-09-11T15:08:39.526Z,30.20
2022-09-11T15:12:22.268Z,29.80
2022-09-11T15:16:05.705Z,29.10
2022-09-11T15:19:49.792Z,28.70
2022-09-11T15:23:32.141Z,28.60
2022-09-11T15:27:14.995Z,28.60
2022-09-11T15:30:58.948Z,28.70
2022-09-11T15:34:42.082Z,28.50
2022-09-11T15:38:24.303Z,28.10
2022-09-11T15:42:07.465Z,27.60
2022-09-11T15:45:49.389Z,27.30
2022-09-11T15:49:31.785Z,27.00
2022-09-11T15:53:13.675Z,26.70
2022-09-11T15:56:55.812Z,26.50
2022-09-11T16:00:37.815Z,26.30
2022-09-11T16:04:21.975Z,26.10
2022-09-11T16:08:03.770Z,25.90
2022-09-11T16:11:47.863Z,25.80
2022-09-11T16:15:29.700Z,25.70
2022-09-11T16:19:11.527Z,25.60
2022-09-11T16:22:54.701Z,25.50
2022-09-11T16:26:38.336Z,25.40
2022-09-11T16:30:42.196Z,25.40
2022-09-11T16:34:21.920Z,25.50
2022-09-11T16:38:04.922Z,25.40
2022-09-11T16:41:46.842Z,25.40
2022-09-11T16:45:28.754Z,25.30
2022-09-11T16:49:15.555Z,25.30
2022-09-11T16:52:57.372Z,25.30
2022-09-11T16:56:42.723Z,25.10
2022-09-11T17:00:28.966Z,25.00
2022-09-11T17:04:10.761Z,24.90
2022-09-11T17:07:52.595Z,24.70
2022-09-11T17:11:36.354Z,24.60
2022-09-11T17:15:19.484Z,24.60
2022-09-11T17:19:01.817Z,24.50
2022-09-11T17:22:43.599Z,24.40
2022-09-11T17:26:25.424Z,24.30
2022-09-11T17:30:07.819Z,24.30
2022-09-11T17:33:49.727Z,24.10
2022-09-11T17:37:31.541Z,24.00
2022-09-11T17:41:13.403Z,23.90
2022-09-11T17:44:56.175Z,23.70
2022-09-11T17:48:39.742Z,23.60
2022-09-11T17:52:21.651Z,23.60
2022-09-11T17:56:06.285Z,23.50
2022-09-11T17:59:50.325Z,23.30
2022-09-11T18:03:33.574Z,23.30
2022-09-11T18:07:16.008Z,23.10
2022-09-11T18:11:00.479Z,23.00
2022-09-11T18:14:45.271Z,22.90
2022-09-11T18:18:27.492Z,22.90
2022-09-11T18:22:10.067Z,22.70
2022-09-11T18:25:51.912Z,22.60
2022-09-11T18:29:35.216Z,22.50
2022-09-11T18:33:17.085Z,22.40
2022-09-11T18:36:59.958Z,22.30
2022-09-11T18:40:41.885Z,22.20
2022-09-11T18:44:25.322Z,22.10
2022-09-11T18:48:07.165Z,22.00
2022-09-11T18:51:49.385Z,21.90
2022-09-11T18:55:31.219Z,21.80
2022-09-11T18:59:13.908Z,21.80
2022-09-11T19:03:00.223Z,21.60
2022-09-11T19:06:42.256Z,21.60
2022-09-11T19:10:24.099Z,21.50
2022-09-11T19:14:10.901Z,21.40
2022-09-11T19:17:55.272Z,21.40
2022-09-11T19:21:38.431Z,21.30
2022-09-11T19:25:20.550Z,21.30
2022-09-11T19:29:02.567Z,21.20
2022-09-11T19:32:44.407Z,21.10
2022-09-11T19:36:28.247Z,21.10
2022-09-11T19:40:10.263Z,21.00
2022-09-11T19:43:54.124Z,20.90
2022-09-11T19:47:36.304Z,20.80
2022-09-11T19:51:23.042Z,20.70
2022-09-11T19:55:05.111Z,20.60
2022-09-11T19:58:46.891Z,20.50
2022-09-11T20:02:28.677Z,20.40
2022-09-11T20:06:12.072Z,20.40
2022-09-11T20:09:53.839Z,20.30
2022-09-11T20:13:35.839Z,20.20
2022-09-11T20:17:17.871Z,20.10
2022-09-11T20:21:04.767Z,20.10
2022-09-11T20:24:46.691Z,20.00
2022-09-11T20:28:28.473Z,19.90
2022-09-11T20:32:13.098Z,19.90
2022-09-11T20:35:54.919Z,19.80
2022-09-11T20:39:36.810Z,19.70
2022-09-11T20:43:18.671Z,19.70
2022-09-11T20:47:00.605Z,19.70
2022-09-11T20:50:42.500Z,19.60
2022-09-11T20:54:24.273Z,19.60
2022-09-11T20:58:06.236Z,19.60
2022-09-11T21:01:49.379Z,19.60
2022-09-11T21:05:31.188Z,19.60
2022-09-11T21:09:13.093Z,19.60
2022-09-11T21:12:55.344Z,19.60
2022-09-11T21:16:37.516Z,19.50
2022-09-11T21:20:19.377Z,19.50
2022-09-11T21:24:04.096Z,19.40
2022-09-11T21:27:48.248Z,19.40
2022-09-11T21:31:30.505Z,19.30
2022-09-11T21:35:12.533Z,19.20
2022-09-11T21:38:54.355Z,19.20
2022-09-11T21:42:36.151Z,19.10
2022-09-11T21:46:18.007Z,19.00
2022-09-11T21:49:59.933Z,19.00
2022-09-11T21:53:44.032Z,19.00
2022-09-11T21:57:28.920Z,18.90
2022-09-11T22:01:10.824Z,18.90
2022-09-11T22:04:53.172Z,18.80
2022-09-11T22:08:35.503Z,18.80
2022-09-11T22:12:17.427Z,18.80
2022-09-11T22:16:00.433Z,18.80
2022-09-11T22:19:45.928Z,18.70
2022-09-11T22:23:29.881Z,18.70
2022-09-11T22:27:12.491Z,18.70
2022-09-11T22:30:54.933Z,18.60
2022-09-11T22:34:38.042Z,18.60
2022-09-11T22:38:19.927Z,18.60
2022-09-11T22:42:01.741Z,18.50
2022-09-11T22:45:50.657Z,18.40
2022-09-11T22:49:32.591Z,18.40
2022-09-11T22:53:14.504Z,18.30
2022-09-11T22:56:56.460Z,18.40
2022-09-11T23:00:39.165Z,18.30
2022-09-11T23:04:21.007Z,18.30
2022-09-11T23:08:03.102Z,18.20
2022-09-11T23:11:45.860Z,18.30
2022-09-11T23:15:28.275Z,18.20
2022-09-11T23:19:12.830Z,18.20
2022-09-11T23:22:54.938Z,18.10
2022-09-11T23:26:36.911Z,18.10
2022-09-11T23:30:18.744Z,18.10
2022-09-11T23:34:02.831Z,18.00
2022-09-11T23:37:45.573Z,18.00
2022-09-11T23:41:28.433Z,18.00
2022-09-11T23:45:12.772Z,18.00
2022-09-11T23:48:54.662Z,17.90
2022-09-11T23:52:36.709Z,17.90
2022-09-11T23:56:19.448Z,17.90
